createdAt,value
2023-04-21T00:00:56.619Z,5.40
2023-04-21T00:03:27.769Z,5.40
2023-04-21T00:05:58.631Z,5.40
2023-04-21T00:08:26.812Z,5.35
2023-04-21T00:10:53.107Z,5.36
2023-04-21T00:13:19.360Z,5.40
2023-04-21T00:15:45.907Z,5.42
2023-04-21T00:18:13.353Z,5.43
2023-04-21T00:20:39.623Z,5.36
2023-04-21T00:23:05.958Z,5.35
2023-04-21T00:25:32.292Z,5.34
2023-04-21T00:27:58.667Z,5.27
2023-04-21T00:30:25.113Z,5.27
2023-04-21T00:32:51.440Z,5.27
2023-04-21T00:35:17.757Z,5.28
2023-04-21T00:37:44.141Z,5.22
2023-04-21T00:40:11.110Z,5.33
2023-04-21T00:42:37.560Z,5.31
2023-04-21T00:45:04.969Z,5.28
2023-04-21T00:47:31.595Z,5.32
2023-04-21T00:49:58.762Z,5.33
2023-04-21T00:52:26.341Z,5.32
2023-04-21T00:54:53.133Z,5.33
2023-04-21T00:57:20.491Z,5.33
2023-04-21T00:59:46.800Z,5.29
2023-04-21T01:02:15.882Z,5.28
2023-04-21T01:04:43.486Z,5.25
2023-04-21T01:07:10.008Z,5.24
2023-04-21T01:09:36.304Z,5.25
2023-04-21T01:12:04.880Z,5.24
2023-04-21T01:14:31.607Z,5.18
2023-04-21T01:16:59.004Z,5.16
2023-04-21T01:19:28.563Z,5.13
2023-04-21T01:21:57.503Z,5.12
2023-04-21T01:24:27.377Z,5.12
2023-04-21T01:26:53.683Z,5.15
2023-04-21T01:29:20.363Z,5.10
2023-04-21T01:31:48.028Z,5.10
2023-04-21T01:34:14.692Z,5.10
2023-04-21T01:36:41.227Z,5.12
2023-04-21T01:39:07.575Z,5.17
2023-04-21T01:41:33.918Z,5.15
2023-04-21T01:44:01.003Z,5.14
2023-04-21T01:46:27.413Z,5.10
2023-04-21T01:48:53.797Z,5.06
2023-04-21T01:51:20.165Z,5.12
2023-04-21T01:53:46.500Z,5.12
2023-04-21T01:56:15.558Z,5.11
2023-04-21T01:58:41.887Z,5.07
2023-04-21T02:01:08.253Z,5.06
2023-04-21T02:03:35.043Z,5.04
2023-04-21T02:06:01.501Z,5.10
2023-04-21T02:08:27.846Z,5.07
2023-04-21T02:10:54.137Z,5.05
2023-04-21T02:13:20.472Z,5.06
2023-04-21T02:15:46.782Z,5.07
2023-04-21T02:18:13.236Z,5.03
2023-04-21T02:20:39.582Z,5.00
2023-04-21T02:23:05.858Z,5.05
2023-04-21T02:25:32.131Z,5.01
2023-04-21T02:27:58.416Z,5.05
2023-04-21T02:30:24.733Z,5.07
2023-04-21T02:32:51.161Z,5.07
2023-04-21T02:35:17.546Z,5.05
2023-04-21T02:37:43.816Z,5.00
2023-04-21T02:40:10.707Z,5.00
2023-04-21T02:42:37.021Z,4.97
2023-04-21T02:45:03.608Z,4.98
2023-04-21T02:47:30.145Z,4.96
2023-04-21T02:49:56.539Z,4.95
2023-04-21T02:52:22.812Z,4.94
2023-04-21T02:54:49.150Z,4.98
2023-04-21T02:57:15.470Z,4.95
2023-04-21T02:59:41.738Z,4.96
2023-04-21T03:02:08.113Z,4.94
2023-04-21T03:04:34.731Z,4.91
2023-04-21T03:07:01.195Z,4.93
2023-04-21T03:09:27.543Z,4.92
2023-04-21T03:11:54.365Z,4.97
2023-04-21T03:14:20.959Z,4.91
2023-04-21T03:16:47.366Z,4.94
2023-04-21T03:19:13.759Z,5.03
2023-04-21T03:21:40.112Z,5.03
2023-04-21T03:24:07.227Z,5.03
2023-04-21T03:26:33.794Z,5.06
2023-04-21T03:29:00.469Z,4.98
2023-04-21T03:31:26.870Z,5.01
2023-04-21T03:33:53.229Z,4.96
2023-04-21T03:36:19.629Z,4.96
2023-04-21T03:38:46.010Z,4.94
2023-04-21T03:41:12.281Z,4.89
2023-04-21T03:43:38.614Z,4.89
2023-04-21T03:46:05.061Z,4.91
2023-04-21T03:48:31.920Z,4.92
2023-04-21T03:50:58.260Z,4.85
2023-04-21T03:53:24.614Z,4.85
2023-04-21T03:55:50.974Z,4.85
2023-04-21T03:58:17.423Z,4.88
2023-04-21T04:00:43.925Z,4.96
2023-04-21T04:03:10.402Z,4.90
2023-04-21T04:05:36.912Z,4.92
2023-04-21T04:08:03.383Z,4.94
2023-04-21T04:10:29.747Z,4.91
2023-04-21T04:12:56.050Z,4.89
2023-04-21T04:15:22.430Z,4.89
2023-04-21T04:17:48.829Z,4.88
2023-04-21T04:20:15.421Z,4.92
2023-04-21T04:22:41.701Z,4.85
2023-04-21T04:25:08.424Z,4.90
2023-04-21T04:27:35.068Z,4.89
2023-04-21T04:30:01.411Z,4.93
2023-04-21T04:32:28.896Z,4.97
2023-04-21T04:34:58.758Z,5.02
2023-04-21T04:37:25.379Z,5.07
2023-04-21T04:39:54.949Z,5.08
2023-04-21T04:42:21.275Z,5.01
2023-04-21T04:44:47.944Z,5.10
2023-04-21T04:47:14.289Z,5.17
2023-04-21T04:49:40.602Z,5.16
2023-04-21T04:52:07.047Z,5.21
2023-04-21T04:54:33.406Z,5.30
2023-04-21T04:56:59.805Z,5.30
2023-04-21T04:59:27.100Z,5.41
2023-04-21T05:01:54.864Z,5.53
2023-04-21T05:04:21.589Z,5.61
2023-04-21T05:06:48.218Z,5.73
2023-04-21T05:09:14.572Z,5.75
2023-04-21T05:11:40.834Z,5.81
2023-04-21T05:14:07.152Z,5.88
2023-04-21T05:16:37.030Z,5.96
2023-04-21T05:19:04.100Z,6.07
2023-04-21T05:21:31.136Z,6.20
2023-04-21T05:23:58.868Z,6.31
2023-04-21T05:26:27.315Z,6.45
2023-04-21T05:28:54.869Z,6.58
2023-04-21T05:31:21.223Z,6.76
2023-04-21T05:33:47.515Z,6.87
2023-04-21T05:36:13.950Z,6.93
2023-04-21T05:38:40.778Z,6.99
2023-04-21T05:41:07.979Z,7.09
2023-04-21T05:43:34.799Z,7.18
2023-04-21T05:46:01.736Z,7.17
2023-04-21T05:48:28.695Z,7.35
2023-04-21T05:50:55.817Z,7.42
2023-04-21T05:53:23.486Z,7.55
2023-04-21T05:55:50.145Z,7.61
2023-04-21T05:58:16.438Z,7.69
2023-04-21T06:00:42.881Z,7.68
2023-04-21T06:03:09.593Z,7.75
2023-04-21T06:05:36.230Z,7.81
2023-04-21T06:08:02.692Z,7.87
2023-04-21T06:10:29.158Z,8.01
2023-04-21T06:12:55.450Z,7.99
2023-04-21T06:15:21.748Z,8.17
2023-04-21T06:17:53.171Z,8.21
2023-04-21T06:20:19.543Z,8.18
2023-04-21T06:22:45.883Z,8.18
2023-04-21T06:25:12.167Z,8.32
2023-04-21T06:27:38.567Z,8.49
2023-04-21T06:30:05.673Z,8.44
2023-04-21T06:32:32.072Z,8.58
2023-04-21T06:34:58.476Z,8.55
2023-04-21T06:37:24.801Z,8.64
2023-04-21T06:39:51.135Z,8.70
2023-04-21T06:42:17.582Z,8.91
2023-04-21T06:44:43.880Z,8.90
2023-04-21T06:47:10.232Z,8.89
2023-04-21T06:49:37.373Z,8.96
2023-04-21T06:52:04.450Z,9.15
2023-04-21T06:54:30.776Z,9.04
2023-04-21T06:56:57.170Z,9.06
2023-04-21T06:59:23.625Z,9.29
2023-04-21T07:01:52.112Z,9.46
2023-04-21T07:04:19.476Z,9.53
2023-04-21T07:06:46.624Z,9.47
2023-04-21T07:09:13.038Z,9.44
2023-04-21T07:11:39.382Z,9.55
2023-04-21T07:14:06.522Z,9.73
2023-04-21T07:16:33.113Z,9.77
2023-04-21T07:18:59.910Z,9.95
2023-04-21T07:21:26.217Z,10.19
2023-04-21T07:23:52.600Z,10.31
2023-04-21T07:26:19.065Z,10.35
2023-04-21T07:28:45.384Z,10.29
2023-04-21T07:31:11.712Z,10.33
2023-04-21T07:33:38.053Z,10.55
2023-04-21T07:36:04.708Z,10.58
2023-04-21T07:38:30.966Z,10.70
2023-04-21T07:40:57.244Z,10.61
2023-04-21T07:43:23.628Z,10.78
2023-04-21T07:45:52.036Z,10.84
2023-04-21T07:48:18.936Z,10.78
2023-04-21T07:50:45.327Z,10.83
2023-04-21T07:53:11.620Z,10.95
2023-04-21T07:55:38.006Z,10.94
2023-04-21T07:58:05.107Z,11.13
2023-04-21T08:00:31.482Z,11.29
2023-04-21T08:02:58.112Z,11.32
2023-04-21T08:05:27.409Z,11.55
2023-04-21T08:07:55.555Z,11.68
2023-04-21T08:10:21.871Z,11.84
2023-04-21T08:12:48.168Z,11.78
2023-04-21T08:15:14.542Z,11.82
2023-04-21T08:17:41.000Z,12.07
2023-04-21T08:20:08.144Z,12.27
2023-04-21T08:22:36.341Z,12.41
2023-04-21T08:25:03.938Z,12.23
2023-04-21T08:27:30.315Z,12.19
2023-04-21T08:29:56.772Z,12.45
2023-04-21T08:32:26.436Z,12.53
2023-04-21T08:34:54.422Z,12.81
2023-04-21T08:37:21.811Z,12.77
2023-04-21T08:39:50.832Z,12.80
2023-04-21T08:42:17.990Z,12.97
2023-04-21T08:44:44.704Z,13.15
2023-04-21T08:47:12.628Z,13.08
2023-04-21T08:49:40.692Z,13.17
2023-04-21T08:52:07.149Z,13.19
2023-04-21T08:54:36.080Z,13.55
2023-04-21T08:57:14.197Z,13.54
2023-04-21T08:59:41.887Z,13.61
2023-04-21T09:02:11.193Z,13.26
2023-04-21T09:04:42.842Z,13.15
2023-04-21T09:07:10.381Z,13.34
2023-04-21T09:09:53.693Z,13.59
2023-04-21T09:12:20.228Z,13.72
2023-04-21T09:14:46.985Z,13.68
2023-04-21T09:17:16.239Z,13.86
2023-04-21T09:19:42.765Z,14.13
2023-04-21T09:22:09.471Z,14.22
2023-04-21T09:24:35.920Z,14.29
2023-04-21T09:27:04.493Z,14.53
2023-04-21T09:29:31.149Z,14.55
2023-04-21T09:31:57.469Z,14.58
2023-04-21T09:34:25.558Z,14.63
2023-04-21T09:37:02.377Z,14.78
2023-04-21T09:42:02.478Z,14.88
2023-04-21T09:44:31.915Z,14.78
2023-04-21T09:47:03.966Z,14.94
2023-04-21T09:49:31.803Z,15.27
2023-04-21T09:52:17.577Z,15.36
2023-04-21T09:54:52.756Z,15.16
2023-04-21T09:57:24.734Z,15.15
2023-04-21T09:59:57.222Z,15.44
2023-04-21T10:02:30.780Z,15.38
2023-04-21T10:04:58.078Z,15.31
2023-04-21T10:07:24.510Z,15.35
2023-04-21T10:09:54.610Z,15.59
2023-04-21T10:12:22.263Z,15.50
2023-04-21T10:14:56.311Z,15.61
2023-04-21T10:17:31.699Z,15.76
2023-04-21T10:19:58.400Z,16.01
2023-04-21T10:22:33.118Z,16.18
2023-04-21T10:25:04.774Z,16.25
2023-04-21T10:27:40.526Z,16.14
2023-04-21T10:30:19.564Z,15.95
2023-04-21T10:32:46.317Z,16.00
2023-04-21T10:35:21.460Z,16.25
2023-04-21T10:37:49.056Z,16.30
2023-04-21T10:40:43.031Z,16.45
2023-04-21T10:43:44.401Z,16.68
2023-04-21T10:46:31.686Z,16.87
2023-04-21T10:49:11.233Z,16.71
2023-04-21T10:51:59.428Z,16.79
2023-04-21T10:54:42.099Z,16.66
2023-04-21T10:57:11.431Z,16.79
2023-04-21T10:59:38.145Z,16.93
2023-04-21T11:02:10.880Z,16.93
2023-04-21T11:04:40.147Z,17.12
2023-04-21T11:07:24.027Z,16.88
2023-04-21T11:09:59.206Z,16.98
2023-04-21T11:12:39.865Z,17.05
2023-04-21T11:15:08.940Z,17.05
2023-04-21T11:17:39.400Z,17.12
2023-04-21T11:20:06.837Z,17.21
2023-04-21T11:22:34.051Z,17.17
2023-04-21T11:25:00.599Z,17.14
2023-04-21T11:27:28.752Z,17.40
2023-04-21T11:29:55.467Z,17.22
2023-04-21T11:32:21.968Z,17.27
2023-04-21T11:34:48.318Z,17.46
2023-04-21T11:37:17.383Z,17.45
2023-04-21T11:39:44.440Z,17.52
2023-04-21T11:42:11.881Z,17.47
2023-04-21T11:44:40.807Z,17.38
2023-04-21T11:47:22.211Z,17.32
2023-04-21T11:49:56.949Z,17.37
2023-04-21T11:52:29.123Z,17.31
2023-04-21T11:55:00.297Z,17.45
2023-04-21T11:57:27.990Z,17.50
2023-04-21T11:59:54.898Z,17.35
2023-04-21T12:02:23.979Z,17.30
2023-04-21T12:05:02.828Z,17.33
2023-04-21T12:07:32.889Z,17.23
2023-04-21T12:10:00.904Z,17.48
2023-04-21T12:12:27.611Z,17.57
2023-04-21T12:14:54.039Z,17.85
2023-04-21T12:17:20.689Z,17.80
2023-04-21T12:19:47.737Z,17.76
2023-04-21T12:22:16.228Z,17.71
2023-04-21T12:24:43.086Z,17.80
2023-04-21T12:27:10.447Z,17.83
2023-04-21T12:29:38.348Z,17.76
2023-04-21T12:32:06.226Z,17.73
2023-04-21T12:34:33.031Z,17.35
2023-04-21T12:36:59.448Z,17.57
2023-04-21T12:39:25.875Z,17.71
2023-04-21T12:41:52.359Z,17.70
2023-04-21T12:44:18.765Z,17.43
2023-04-21T12:46:45.128Z,17.45
2023-04-21T12:49:11.697Z,17.48
2023-04-21T12:51:38.208Z,17.38
2023-04-21T12:54:04.615Z,17.46
2023-04-21T12:56:31.405Z,17.59
2023-04-21T12:58:58.314Z,17.80
2023-04-21T13:01:24.971Z,17.97
2023-04-21T13:03:51.772Z,17.94
2023-04-21T13:06:18.631Z,18.06
2023-04-21T13:08:44.995Z,17.91
2023-04-21T13:11:11.362Z,17.72
2023-04-21T13:13:38.808Z,17.82
2023-04-21T13:16:05.932Z,17.61
2023-04-21T13:18:34.794Z,17.43
2023-04-21T13:21:01.568Z,17.54
2023-04-21T13:23:28.443Z,17.84
2023-04-21T13:25:54.994Z,17.99
2023-04-21T13:28:22.220Z,17.67
2023-04-21T13:30:49.496Z,17.61
2023-04-21T13:33:16.427Z,17.50
2023-04-21T13:35:42.993Z,17.34
2023-04-21T13:38:09.373Z,17.51
2023-04-21T13:40:35.985Z,17.67
2023-04-21T13:43:02.608Z,17.85
2023-04-21T13:45:29.134Z,17.92
2023-04-21T13:47:55.722Z,17.75
2023-04-21T13:50:23.111Z,17.81
2023-04-21T13:52:49.853Z,17.64
2023-04-21T13:55:16.248Z,17.56
2023-04-21T13:57:42.565Z,17.30
2023-04-21T14:00:10.786Z,17.30
2023-04-21T14:02:39.884Z,17.54
2023-04-21T14:05:07.060Z,17.84
2023-04-21T14:07:34.858Z,17.86
2023-04-21T14:10:01.494Z,17.90
2023-04-21T14:12:28.021Z,17.85
2023-04-21T14:14:54.325Z,17.95
2023-04-21T14:17:21.057Z,18.01
2023-04-21T14:19:47.608Z,17.77
2023-04-21T14:22:13.964Z,17.70
2023-04-21T14:24:40.330Z,17.82
2023-04-21T14:27:06.685Z,17.90
2023-04-21T14:29:33.279Z,17.63
2023-04-21T14:31:59.860Z,17.31
2023-04-21T14:34:26.459Z,17.35
2023-04-21T14:36:53.541Z,17.37
2023-04-21T14:39:20.097Z,17.53
2023-04-21T14:41:46.490Z,17.64
2023-04-21T14:44:12.874Z,17.70
2023-04-21T14:46:39.393Z,17.43
2023-04-21T14:49:06.158Z,17.42
2023-04-21T14:51:32.604Z,17.35
2023-04-21T14:53:58.996Z,17.33
2023-04-21T14:56:25.664Z,17.30
2023-04-21T14:59:36.991Z,17.44
2023-04-21T15:02:04.509Z,17.62
2023-04-21T15:04:31.783Z,17.52
2023-04-21T15:06:58.301Z,17.64
2023-04-21T15:09:25.095Z,17.56
2023-04-21T15:11:51.444Z,17.49
2023-04-21T15:14:17.764Z,17.44
2023-04-21T15:16:44.206Z,17.58
2023-04-21T15:19:10.980Z,17.46
2023-04-21T15:21:37.482Z,17.40
2023-04-21T15:24:03.880Z,17.50
2023-04-21T15:26:30.510Z,17.40
2023-04-21T15:28:57.596Z,17.45
2023-04-21T15:31:24.308Z,17.49
2023-04-21T15:33:50.741Z,17.45
2023-04-21T15:36:17.013Z,17.30
2023-04-21T15:38:44.917Z,17.32
2023-04-21T15:41:11.327Z,17.25
2023-04-21T15:43:37.899Z,17.28
2023-04-21T15:46:12.763Z,17.20
2023-04-21T15:48:43.826Z,17.12
2023-04-21T15:51:10.919Z,16.95
2023-04-21T15:53:37.682Z,16.96
2023-04-21T15:56:04.667Z,16.91
2023-04-21T15:58:31.066Z,16.89
2023-04-21T16:00:57.497Z,16.82
2023-04-21T16:03:24.064Z,16.83
2023-04-21T16:05:51.010Z,16.82
2023-04-21T16:08:17.589Z,16.80
2023-04-21T16:10:46.669Z,16.77
2023-04-21T16:13:13.231Z,16.71
2023-04-21T16:15:40.522Z,16.66
2023-04-21T16:18:08.303Z,16.55
2023-04-21T16:20:35.943Z,16.58
2023-04-21T16:23:05.032Z,16.58
2023-04-21T16:25:34.550Z,16.54
2023-04-21T16:28:00.985Z,16.48
2023-04-21T16:30:27.313Z,16.46
2023-04-21T16:32:55.544Z,16.53
2023-04-21T16:35:22.068Z,16.46
2023-04-21T16:37:48.436Z,16.44
2023-04-21T16:40:14.856Z,16.46
2023-04-21T16:42:41.316Z,16.38
2023-04-21T16:45:08.248Z,16.43
2023-04-21T16:47:40.393Z,16.35
2023-04-21T16:50:08.874Z,16.32
2023-04-21T16:52:35.878Z,16.28
2023-04-21T16:55:02.355Z,16.32
2023-04-21T16:57:30.286Z,16.27
2023-04-21T16:59:58.125Z,16.26
2023-04-21T17:02:24.800Z,16.22
2023-04-21T17:04:51.408Z,16.21
2023-04-21T17:07:18.107Z,15.95
2023-04-21T17:09:44.895Z,15.77
2023-04-21T17:12:11.341Z,15.59
2023-04-21T17:14:37.918Z,15.57
2023-04-21T17:17:04.739Z,15.43
2023-04-21T17:19:31.342Z,15.34
2023-04-21T17:21:57.653Z,15.21
2023-04-21T17:24:24.164Z,15.18
2023-04-21T17:26:50.628Z,15.03
2023-04-21T17:29:17.165Z,14.90
2023-04-21T17:31:43.529Z,14.91
2023-04-21T17:34:09.886Z,14.87
2023-04-21T17:36:39.639Z,14.76
2023-04-21T17:39:06.237Z,14.67
2023-04-21T17:41:32.708Z,14.59
2023-04-21T17:44:00.043Z,14.61
2023-04-21T17:46:26.946Z,14.56
2023-04-21T17:48:53.580Z,14.57
2023-04-21T17:51:19.921Z,14.45
2023-04-21T17:53:48.865Z,14.36
2023-04-21T17:56:15.335Z,14.27
2023-04-21T17:58:42.301Z,14.19
2023-04-21T18:01:08.806Z,14.10
2023-04-21T18:03:41.146Z,14.04
2023-04-21T18:06:09.813Z,13.95
2023-04-21T18:08:37.027Z,13.86
2023-04-21T18:11:03.402Z,13.79
2023-04-21T18:13:29.886Z,13.77
2023-04-21T18:15:58.025Z,13.66
2023-04-21T18:18:25.465Z,13.53
2023-04-21T18:20:51.752Z,13.43
2023-04-21T18:23:18.221Z,13.28
2023-04-21T18:25:44.530Z,13.17
2023-04-21T18:28:12.302Z,13.19
2023-04-21T18:30:39.444Z,13.10
2023-04-21T18:33:06.185Z,13.03
2023-04-21T18:35:33.776Z,12.88
2023-04-21T18:38:00.567Z,12.85
2023-04-21T18:40:27.098Z,12.82
2023-04-21T18:42:53.697Z,12.72
2023-04-21T18:45:20.103Z,12.68
2023-04-21T18:47:46.773Z,12.69
2023-04-21T18:50:13.166Z,12.62
2023-04-21T18:52:39.640Z,12.64
2023-04-21T18:55:06.205Z,12.63
2023-04-21T18:57:32.500Z,12.57
2023-04-21T18:59:59.998Z,12.65
2023-04-21T19:02:26.483Z,12.64
2023-04-21T19:04:53.140Z,12.58
2023-04-21T19:07:19.555Z,12.53
2023-04-21T19:09:45.968Z,12.45
2023-04-21T19:12:12.371Z,12.39
2023-04-21T19:14:46.496Z,12.34
2023-04-21T19:17:13.674Z,12.34
2023-04-21T19:19:40.625Z,12.27
2023-04-21T19:22:06.941Z,12.17
2023-04-21T19:24:33.311Z,12.15
2023-04-21T19:27:01.662Z,12.11
2023-04-21T19:29:28.255Z,12.05
2023-04-21T19:31:54.791Z,12.03
2023-04-21T19:34:21.391Z,12.02
2023-04-21T19:36:49.339Z,11.97
2023-04-21T19:39:15.936Z,11.89
2023-04-21T19:41:42.882Z,11.78
2023-04-21T19:44:09.358Z,11.79
2023-04-21T19:46:35.827Z,11.71
2023-04-21T19:49:02.229Z,11.69
2023-04-21T19:51:28.567Z,11.64
2023-04-21T19:54:10.097Z,11.55
2023-04-21T19:56:37.896Z,11.52
2023-04-21T19:59:07.398Z,11.46
2023-04-21T20:01:34.172Z,11.39
2023-04-21T20:04:00.989Z,11.35
2023-04-21T20:06:28.680Z,11.32
2023-04-21T20:08:55.519Z,11.26
2023-04-21T20:11:21.938Z,11.19
2023-04-21T20:13:48.499Z,11.06
2023-04-21T20:16:15.949Z,11.01
2023-04-21T20:18:42.659Z,10.97
2023-04-21T20:21:08.921Z,10.94
2023-04-21T20:23:35.279Z,10.91
2023-04-21T20:26:01.674Z,10.85
2023-04-21T20:28:28.059Z,10.72
2023-04-21T20:30:56.680Z,10.71
2023-04-21T20:33:23.061Z,10.62
2023-04-21T20:35:49.816Z,10.59
2023-04-21T20:38:16.283Z,10.56
2023-04-21T20:40:42.888Z,10.47
2023-04-21T20:43:10.078Z,10.45
2023-04-21T20:45:36.433Z,10.39
2023-04-21T20:48:03.841Z,10.26
2023-04-21T20:50:30.255Z,10.21
2023-04-21T20:52:56.672Z,10.22
2023-04-21T20:55:22.998Z,10.15
2023-04-21T20:57:49.356Z,10.07
2023-04-21T21:00:15.852Z,10.03
2023-04-21T21:02:42.350Z,9.90
2023-04-21T21:05:08.952Z,9.89
2023-04-21T21:07:35.444Z,9.85
2023-04-21T21:10:04.000Z,9.81
2023-04-21T21:12:30.307Z,9.78
2023-04-21T21:14:56.635Z,9.74
2023-04-21T21:17:23.081Z,9.67
2023-04-21T21:19:49.547Z,9.68
2023-04-21T21:22:15.878Z,9.62
2023-04-21T21:24:42.849Z,9.57
2023-04-21T21:27:09.163Z,9.55
2023-04-21T21:29:35.596Z,9.55
2023-04-21T21:32:02.006Z,9.46
2023-04-21T21:34:28.469Z,9.41
2023-04-21T21:36:54.834Z,9.41
2023-04-21T21:39:21.205Z,9.38
2023-04-21T21:41:47.480Z,9.27
2023-04-21T21:44:13.778Z,9.20
2023-04-21T21:46:40.357Z,9.25
2023-04-21T21:49:06.740Z,9.25
2023-04-21T21:51:33.097Z,9.26
2023-04-21T21:53:59.424Z,9.15
2023-04-21T21:56:25.909Z,9.06
2023-04-21T21:58:52.838Z,9.02
2023-04-21T22:01:19.221Z,8.94
2023-04-21T22:03:47.011Z,9.00
2023-04-21T22:06:16.852Z,8.97
2023-04-21T22:08:43.559Z,8.97
2023-04-21T22:11:09.880Z,9.00
2023-04-21T22:13:36.208Z,8.94
2023-04-21T22:16:03.024Z,8.89
2023-04-21T22:18:29.908Z,8.80
2023-04-21T22:20:56.361Z,8.76
2023-04-21T22:23:22.629Z,8.79
2023-04-21T22:25:49.037Z,8.79
2023-04-21T22:28:15.504Z,8.82
2023-04-21T22:30:41.900Z,8.83
2023-04-21T22:33:08.354Z,8.81
2023-04-21T22:35:34.701Z,8.87
2023-04-21T22:38:01.023Z,8.82
2023-04-21T22:40:27.686Z,8.78
2023-04-21T22:42:54.500Z,8.77
2023-04-21T22:45:21.321Z,8.77
2023-04-21T22:47:49.048Z,8.70
2023-04-21T22:50:15.864Z,8.73
2023-04-21T22:52:42.330Z,8.74
2023-04-21T22:55:09.198Z,8.79
2023-04-21T22:57:37.329Z,8.73
2023-04-21T23:00:06.249Z,8.74
2023-04-21T23:02:32.976Z,8.78
2023-04-21T23:04:59.493Z,8.69
2023-04-21T23:07:25.778Z,8.61
2023-04-21T23:09:52.089Z,8.60
2023-04-21T23:12:18.465Z,8.61
2023-04-21T23:14:44.797Z,8.70
2023-04-21T23:17:11.072Z,8.70
2023-04-21T23:19:37.542Z,8.64
2023-04-21T23:22:04.092Z,8.71
2023-04-21T23:24:30.692Z,8.63
2023-04-21T23:26:56.987Z,8.64
2023-04-21T23:29:23.316Z,8.65
2023-04-21T23:31:49.900Z,8.68
2023-04-21T23:34:16.253Z,8.65
2023-04-21T23:36:42.637Z,8.68
2023-04-21T23:39:09.754Z,8.75
2023-04-21T23:41:36.147Z,8.79
2023-04-21T23:44:02.523Z,8.83
2023-04-21T23:46:28.917Z,8.73
2023-04-21T23:48:55.259Z,8.79
2023-04-21T23:51:21.662Z,8.87
2023-04-21T23:53:48.084Z,8.83
2023-04-21T23:56:14.593Z,8.80
2023-04-21T23:58:40.993Z,8.87
